Terminal Aerodrome Forecast
Issued by NWS

Home | Current Version | Previous Version | Text Only | Print | Product List | Glossary On
Versions: 1 2 3 4 5 6 7 8 9 10 11 12 13 14 15 16 17 18 19 20
710
FTUS43 KMPX 232009 AAB
TAFAXN
TAF AMD
KAXN 232009Z 2320/2418 03006KT P6SM -SHRA VCTS BKN007 OVC020CB
      TEMPO 2320/2324 3SM -SHRA BR SCT007 BKN035 OVC100
     FM240000 03007KT 4SM -SHRA OVC007
     FM240500 09009KT 4SM BR OVC004
     FM240900 15009KT P6SM OVC015
     FM241500 17012G18KT P6SM SCT020 BKN250=

USA.gov is the U.S. government's official web portal to all federal, state and local government web resources and services.